createdAt,value
2022-09-22T00:01:39.629Z,101841.56
2022-09-22T00:04:05.915Z,101853.19
2022-09-22T00:06:32.244Z,101851.50
2022-09-22T00:08:58.934Z,101848.81
2022-09-22T00:11:25.167Z,101846.97
2022-09-22T00:13:51.789Z,101848.44
2022-09-22T00:16:18.119Z,101844.09
2022-09-22T00:18:44.740Z,101846.97
2022-09-22T00:21:11.290Z,101845.94
2022-09-22T00:23:37.762Z,101851.50
2022-09-22T00:26:04.267Z,101851.72
2022-09-22T00:28:30.581Z,101853.41
2022-09-22T00:30:57.026Z,101855.25
2022-09-22T00:33:23.307Z,101843.88
2022-09-22T00:35:49.861Z,101855.25
2022-09-22T00:38:16.180Z,101845.31
2022-09-22T00:40:42.534Z,101849.84
2022-09-22T00:43:09.101Z,101847.81
2022-09-22T00:45:35.584Z,101853.41
2022-09-22T00:48:01.827Z,101841.78
2022-09-22T00:50:28.089Z,101853.59
2022-09-22T00:52:54.561Z,101854.41
2022-09-22T00:55:21.036Z,101850.69
2022-09-22T00:57:47.472Z,101852.56
2022-09-22T01:00:13.718Z,101851.50
2022-09-22T01:02:40.150Z,101850.69
2022-09-22T01:05:06.589Z,101840.34
2022-09-22T01:07:34.476Z,101845.72
2022-09-22T01:10:00.997Z,101839.28
2022-09-22T01:12:27.491Z,101840.13
2022-09-22T01:14:53.753Z,101837.63
2022-09-22T01:17:21.717Z,101840.34
2022-09-22T01:19:48.129Z,101841.19
2022-09-22T01:22:14.712Z,101841.38
2022-09-22T01:24:41.023Z,101843.22
2022-09-22T01:27:07.236Z,101840.53
2022-09-22T01:29:33.758Z,101842.81
2022-09-22T01:32:00.013Z,101836.78
2022-09-22T01:34:26.348Z,101845.09
2022-09-22T01:36:52.698Z,101834.09
2022-09-22T01:39:18.946Z,101842.19
2022-09-22T01:41:45.237Z,101833.28
2022-09-22T01:44:11.557Z,101834.31
2022-09-22T01:46:37.901Z,101832.84
2022-09-22T01:49:04.402Z,101830.59
2022-09-22T01:51:30.705Z,101828.91
2022-09-22T01:53:57.266Z,101827.28
2022-09-22T01:56:23.580Z,101832.47
2022-09-22T01:58:49.891Z,101826.22
2022-09-22T02:01:16.588Z,101828.13
2022-09-22T02:03:42.869Z,101825.63
2022-09-22T02:06:09.196Z,101823.78
2022-09-22T02:08:35.474Z,101821.06
2022-09-22T02:11:01.751Z,101821.88
2022-09-22T02:13:27.987Z,101822.72
2022-09-22T02:15:54.610Z,101830.81
2022-09-22T02:18:21.149Z,101822.94
2022-09-22T02:20:47.593Z,101821.88
2022-09-22T02:23:14.064Z,101820.25
2022-09-22T02:25:40.519Z,101827.47
2022-09-22T02:28:06.821Z,101824.56
2022-09-22T02:30:33.156Z,101832.06
2022-09-22T02:32:59.542Z,101824.78
2022-09-22T02:35:25.925Z,101819.41
2022-09-22T02:37:52.244Z,101819.41
2022-09-22T02:40:18.855Z,101819.19
2022-09-22T02:42:45.147Z,101827.47
2022-09-22T02:45:11.431Z,101818.59
2022-09-22T02:47:38.688Z,101818.38
2022-09-22T02:50:05.478Z,101824.78
2022-09-22T02:52:31.748Z,101831.22
2022-09-22T02:54:58.179Z,101823.13
2022-09-22T02:57:24.480Z,101829.16
2022-09-22T02:59:50.829Z,101827.47
2022-09-22T03:02:17.299Z,101826.88
2022-09-22T03:04:43.648Z,101829.56
2022-09-22T03:07:10.208Z,101823.34
2022-09-22T03:09:36.457Z,101821.28
2022-09-22T03:12:02.855Z,101818.78
2022-09-22T03:14:29.353Z,101822.28
2022-09-22T03:16:55.793Z,101825.00
2022-09-22T03:19:22.131Z,101833.91
2022-09-22T03:21:48.471Z,101829.56
2022-09-22T03:24:14.775Z,101823.34
2022-09-22T03:26:41.303Z,101820.84
2022-09-22T03:29:07.571Z,101827.91
2022-09-22T03:31:34.114Z,101821.69
2022-09-22T03:34:00.527Z,101823.13
2022-09-22T03:36:27.237Z,101821.50
2022-09-22T03:38:53.663Z,101816.09
2022-09-22T03:41:19.939Z,101813.81
2022-09-22T03:43:46.480Z,101820.84
2022-09-22T03:46:12.844Z,101811.97
2022-09-22T03:48:42.925Z,101814.66
2022-09-22T03:51:11.372Z,101820.84
2022-09-22T03:53:37.685Z,101804.69
2022-09-22T03:56:05.138Z,101811.97
2022-09-22T03:58:31.448Z,101810.06
2022-09-22T04:00:57.782Z,101811.97
2022-09-22T04:03:24.218Z,101807.38
2022-09-22T04:05:50.878Z,101803.03
2022-09-22T04:08:17.406Z,101796.00
2022-09-22T04:10:44.195Z,101806.56
2022-09-22T04:13:10.684Z,101801.41
2022-09-22T04:15:37.256Z,101808.44
2022-09-22T04:18:03.533Z,101804.69
2022-09-22T04:20:29.836Z,101807.38
2022-09-22T04:22:56.212Z,101813.00
2022-09-22T04:25:22.609Z,101807.63
2022-09-22T04:27:48.885Z,101801.19
2022-09-22T04:30:15.220Z,101807.63
2022-09-22T04:32:41.548Z,101803.03
2022-09-22T04:35:09.029Z,101802.44
2022-09-22T04:37:36.087Z,101808.44
2022-09-22T04:40:02.362Z,101810.53
2022-09-22T04:42:28.706Z,101804.28
2022-09-22T04:44:54.957Z,101805.13
2022-09-22T04:47:21.255Z,101805.13
2022-09-22T04:49:48.697Z,101805.13
2022-09-22T04:52:15.741Z,101816.72
2022-09-22T04:54:42.000Z,101808.63
2022-09-22T04:57:08.261Z,101813.22
2022-09-22T04:59:34.531Z,101823.97
2022-09-22T05:02:00.912Z,101829.38
2022-09-22T05:04:27.295Z,101835.78
2022-09-22T05:06:53.542Z,101826.88
2022-09-22T05:09:20.110Z,101820.66
2022-09-22T05:11:46.561Z,101831.44
2022-09-22T05:14:12.847Z,101837.88
2022-09-22T05:16:39.531Z,101831.44
2022-09-22T05:19:05.873Z,101834.34
2022-09-22T05:21:32.200Z,101830.81
2022-09-22T05:23:58.530Z,101832.47
2022-09-22T05:26:25.103Z,101834.34
2022-09-22T05:28:51.411Z,101830.81
2022-09-22T05:31:17.859Z,101831.84
2022-09-22T05:33:44.193Z,101829.59
2022-09-22T05:36:10.447Z,101839.53
2022-09-22T05:38:36.709Z,101841.41
2022-09-22T05:41:03.137Z,101842.00
2022-09-22T05:43:29.441Z,101848.22
2022-09-22T05:45:55.967Z,101849.03
2022-09-22T05:48:22.332Z,101854.44
2022-09-22T05:50:48.642Z,101850.09
2022-09-22T05:53:15.117Z,101857.97
2022-09-22T05:55:41.585Z,101857.34
2022-09-22T05:58:07.820Z,101854.44
2022-09-22T06:00:34.204Z,101856.91
2022-09-22T06:03:00.624Z,101857.97
2022-09-22T06:05:26.864Z,101863.56
2022-09-22T06:07:53.313Z,101864.41
2022-09-22T06:10:19.585Z,101863.56
2022-09-22T06:12:46.310Z,101866.44
2022-09-22T06:15:12.614Z,101859.41
2022-09-22T06:17:38.988Z,101861.06
2022-09-22T06:20:05.353Z,101862.94
2022-09-22T06:22:32.573Z,101860.25
2022-09-22T06:24:58.876Z,101861.91
2022-09-22T06:27:25.137Z,101861.91
2022-09-22T06:29:51.853Z,101869.16
2022-09-22T06:32:18.306Z,101865.66
2022-09-22T06:34:44.582Z,101868.53
2022-09-22T06:37:10.964Z,101864.59
2022-09-22T06:39:37.336Z,101866.44
2022-09-22T06:42:03.608Z,101863.97
2022-09-22T06:44:29.997Z,101868.09
2022-09-22T06:46:56.297Z,101868.94
2022-09-22T06:49:22.612Z,101864.59
2022-09-22T06:51:48.846Z,101859.22
2022-09-22T06:54:15.159Z,101860.03
2022-09-22T06:56:41.444Z,101864.41
2022-09-22T06:59:10.629Z,101863.56
2022-09-22T07:01:37.734Z,101861.69
2022-09-22T07:04:04.445Z,101865.41
2022-09-22T07:06:30.884Z,101865.41
2022-09-22T07:08:57.258Z,101871.84
2022-09-22T07:11:23.881Z,101863.34
2022-09-22T07:13:50.200Z,101868.94
2022-09-22T07:16:16.589Z,101862.72
2022-09-22T07:18:42.909Z,101862.72
2022-09-22T07:21:09.232Z,101866.44
2022-09-22T07:23:35.702Z,101866.25
2022-09-22T07:26:01.946Z,101874.34
2022-09-22T07:28:28.272Z,101873.28
2022-09-22T07:30:54.529Z,101867.28
2022-09-22T07:33:20.928Z,101867.69
2022-09-22T07:35:47.220Z,101867.28
2022-09-22T07:38:13.505Z,101864.81
2022-09-22T07:40:39.815Z,101861.28
2022-09-22T07:43:06.142Z,101862.94
2022-09-22T07:45:32.606Z,101862.13
2022-09-22T07:47:58.952Z,101857.56
2022-09-22T07:50:25.597Z,101863.97
2022-09-22T07:52:51.965Z,101863.75
2022-09-22T07:55:18.310Z,101864.59
2022-09-22T07:57:44.624Z,101868.09
2022-09-22T08:00:10.921Z,101869.34
2022-09-22T08:02:37.266Z,101875.38
2022-09-22T08:05:03.737Z,101868.94
2022-09-22T08:07:29.997Z,101867.09
2022-09-22T08:09:56.300Z,101863.56
2022-09-22T08:12:22.596Z,101870.59
2022-09-22T08:14:48.901Z,101861.47
2022-09-22T08:17:15.517Z,101870.38
2022-09-22T08:19:42.013Z,101865.22
2022-09-22T08:22:08.332Z,101869.78
2022-09-22T08:24:35.030Z,101866.84
2022-09-22T08:27:01.388Z,101874.72
2022-09-22T08:29:27.824Z,101870.38
2022-09-22T08:31:54.363Z,101864.16
2022-09-22T08:34:20.830Z,101875.78
2022-09-22T08:36:47.330Z,101873.28
2022-09-22T08:39:14.032Z,101875.78
2022-09-22T08:41:40.560Z,101878.47
2022-09-22T08:44:06.980Z,101876.63
2022-09-22T08:46:33.315Z,101884.69
2022-09-22T08:48:59.632Z,101878.47
2022-09-22T08:51:26.068Z,101872.25
2022-09-22T08:53:52.370Z,101872.25
2022-09-22T08:56:18.656Z,101873.94
2022-09-22T08:58:45.510Z,101870.59
2022-09-22T09:01:11.831Z,101873.94
2022-09-22T09:03:38.152Z,101871.22
2022-09-22T09:06:04.578Z,101876.81
2022-09-22T09:08:31.004Z,101870.59
2022-09-22T09:10:57.305Z,101875.16
2022-09-22T09:13:23.900Z,101868.94
2022-09-22T09:15:50.373Z,101873.28
2022-09-22T09:18:16.694Z,101869.78
2022-09-22T09:20:43.090Z,101870.59
2022-09-22T09:23:09.469Z,101874.94
2022-09-22T09:25:35.914Z,101876.81
2022-09-22T09:28:02.187Z,101873.28
2022-09-22T09:30:28.532Z,101873.28
2022-09-22T09:32:54.817Z,101866.03
2022-09-22T09:35:21.154Z,101864.16
2022-09-22T09:37:47.511Z,101863.34
2022-09-22T09:40:13.951Z,101862.31
2022-09-22T09:42:40.392Z,101858.16
2022-09-22T09:45:06.665Z,101861.69
2022-09-22T09:47:32.939Z,101864.41
2022-09-22T09:49:59.383Z,101858.16
2022-09-22T09:52:26.013Z,101860.03
2022-09-22T09:54:52.276Z,101858.16
2022-09-22T09:57:18.597Z,101858.38
2022-09-22T09:59:45.309Z,101853.81
2022-09-22T10:02:11.601Z,101857.34
2022-09-22T10:04:38.088Z,101859.22
2022-09-22T10:07:04.376Z,101852.97
2022-09-22T10:09:30.683Z,101851.94
2022-09-22T10:11:56.961Z,101859.00
2022-09-22T10:14:23.490Z,101852.78
2022-09-22T10:16:49.886Z,101863.56
2022-09-22T10:19:16.613Z,101854.44
2022-09-22T10:21:43.081Z,101851.94
2022-09-22T10:24:09.430Z,101851.13
2022-09-22T10:26:35.896Z,101852.78
2022-09-22T10:29:02.280Z,101853.81
2022-09-22T10:31:28.709Z,101857.13
2022-09-22T10:33:55.167Z,101859.00
2022-09-22T10:36:21.546Z,101849.25
2022-09-22T10:38:47.830Z,101857.34
2022-09-22T10:41:14.100Z,101860.88
2022-09-22T10:43:40.378Z,101850.28
2022-09-22T10:46:06.694Z,101850.28
2022-09-22T10:48:33.053Z,101856.53
2022-09-22T10:50:59.632Z,101853.81
2022-09-22T10:53:26.053Z,101849.47
2022-09-22T10:55:52.318Z,101846.78
2022-09-22T10:58:18.645Z,101844.09
2022-09-22T11:00:44.871Z,101847.41
2022-09-22T11:03:11.126Z,101841.41
2022-09-22T11:05:37.529Z,101845.94
2022-09-22T11:08:03.812Z,101840.56
2022-09-22T11:10:30.256Z,101834.34
2022-09-22T11:12:56.920Z,101840.38
2022-09-22T11:15:23.297Z,101836.81
2022-09-22T11:17:50.000Z,101824.59
2022-09-22T11:20:16.360Z,101827.94
2022-09-22T11:22:42.718Z,101823.34
2022-09-22T11:25:08.976Z,101822.56
2022-09-22T11:27:35.240Z,101822.56
2022-09-22T11:30:02.393Z,101826.06
2022-09-22T11:32:31.796Z,101825.00
2022-09-22T11:34:58.064Z,101822.56
2022-09-22T11:37:24.359Z,101821.50
2022-09-22T11:39:50.708Z,101817.16
2022-09-22T11:42:17.070Z,101817.16
2022-09-22T11:44:43.332Z,101815.28
2022-09-22T11:47:09.664Z,101812.38
2022-09-22T11:49:36.032Z,101811.34
2022-09-22T11:52:02.432Z,101807.59
2022-09-22T11:54:28.837Z,101810.28
2022-09-22T11:56:55.421Z,101800.56
2022-09-22T11:59:21.879Z,101803.06
2022-09-22T12:01:48.186Z,101798.50
2022-09-22T12:04:14.956Z,101797.66
2022-09-22T12:06:41.324Z,101805.75
2022-09-22T12:09:07.928Z,101788.75
2022-09-22T12:11:34.247Z,101789.78
2022-09-22T12:14:01.610Z,101778.22
2022-09-22T12:16:28.109Z,101774.69
2022-09-22T12:18:54.347Z,101773.84
2022-09-22T12:21:20.865Z,101773.63
2022-09-22T12:23:50.569Z,101772.81
2022-09-22T12:26:17.676Z,101767.44
2022-09-22T12:28:44.035Z,101765.56
2022-09-22T12:31:10.861Z,101770.13
2022-09-22T12:33:37.391Z,101771.97
2022-09-22T12:36:03.854Z,101759.13
2022-09-22T12:38:30.847Z,101760.16
2022-09-22T12:40:57.414Z,101757.47
2022-09-22T12:43:23.733Z,101760.16
2022-09-22T12:45:50.078Z,101762.84
2022-09-22T12:48:16.496Z,101756.66
2022-09-22T12:50:42.773Z,101754.78
2022-09-22T12:53:09.422Z,101759.56
2022-09-22T12:55:35.896Z,101757.69
2022-09-22T12:58:02.151Z,101756.88
2022-09-22T13:00:30.643Z,101754.97
2022-09-22T13:02:59.428Z,101756.88
2022-09-22T13:05:25.698Z,101754.38
2022-09-22T13:07:51.969Z,101752.28
2022-09-22T13:10:18.280Z,101752.53
2022-09-22T13:12:44.559Z,101754.38
2022-09-22T13:15:10.953Z,101745.25
2022-09-22T13:17:37.454Z,101746.31
2022-09-22T13:20:03.735Z,101742.75
2022-09-22T13:22:30.202Z,101741.97
2022-09-22T13:24:56.476Z,101741.97
2022-09-22T13:27:22.920Z,101743.41
2022-09-22T13:29:49.237Z,101744.44
2022-09-22T13:32:18.422Z,101739.06
2022-09-22T13:34:45.259Z,101734.28
2022-09-22T13:37:11.725Z,101735.31
2022-09-22T13:39:38.247Z,101734.28
2022-09-22T13:42:04.492Z,101728.06
2022-09-22T13:44:30.736Z,101725.34
2022-09-22T13:46:57.364Z,101718.13
2022-09-22T13:49:23.869Z,101722.66
2022-09-22T13:51:50.455Z,101722.47
2022-09-22T13:54:16.762Z,101717.28
2022-09-22T13:56:43.106Z,101721.66
2022-09-22T13:59:09.412Z,101712.72
2022-09-22T14:01:35.700Z,101721.41
2022-09-22T14:04:02.185Z,101725.78
2022-09-22T14:06:28.421Z,101726.78
2022-09-22T14:08:54.712Z,101716.88
2022-09-22T14:11:21.040Z,101716.03
2022-09-22T14:13:47.405Z,101718.50
2022-09-22T14:16:14.388Z,101718.72
2022-09-22T14:18:40.643Z,101717.69
2022-09-22T14:21:07.668Z,101720.41
2022-09-22T14:23:34.103Z,101710.44
2022-09-22T14:26:00.358Z,101713.97
2022-09-22T14:28:26.856Z,101712.91
2022-09-22T14:30:53.463Z,101705.88
2022-09-22T14:33:19.777Z,101711.88
2022-09-22T14:35:46.058Z,101711.06
2022-09-22T14:38:19.025Z,101713.53
2022-09-22T14:40:46.799Z,101706.28
2022-09-22T14:43:13.133Z,101709.81
2022-09-22T14:45:39.422Z,101703.59
2022-09-22T14:48:05.934Z,101699.03
2022-09-22T14:50:32.460Z,101696.34
2022-09-22T14:52:58.813Z,101694.47
2022-09-22T14:55:25.166Z,101693.44
2022-09-22T14:57:51.671Z,101690.75
2022-09-22T15:00:17.988Z,101682.66
2022-09-22T15:02:44.234Z,101683.47
2022-09-22T15:05:10.479Z,101679.75
2022-09-22T15:07:36.689Z,101678.72
2022-09-22T15:10:03.151Z,101679.53
2022-09-22T15:12:29.486Z,101681.41
2022-09-22T15:14:55.908Z,101679.31
2022-09-22T15:17:22.423Z,101680.34
2022-09-22T15:19:48.793Z,101673.72
2022-09-22T15:22:15.493Z,101684.50
2022-09-22T15:24:42.005Z,101679.94
2022-09-22T15:27:08.382Z,101683.44
2022-09-22T15:29:34.687Z,101680.16
2022-09-22T15:32:01.205Z,101679.09
2022-09-22T15:34:28.308Z,101679.09
2022-09-22T15:36:54.615Z,101679.72
2022-09-22T15:39:20.968Z,101679.94
2022-09-22T15:41:47.710Z,101680.75
2022-09-22T15:44:16.295Z,101678.91
2022-09-22T15:46:42.798Z,101678.91
2022-09-22T15:49:09.114Z,101671.88
2022-09-22T15:51:35.563Z,101674.56
2022-09-22T15:54:01.888Z,101669.16
2022-09-22T15:56:28.279Z,101674.34
2022-09-22T15:58:54.629Z,101667.28
2022-09-22T16:01:21.033Z,101669.97
2022-09-22T16:03:47.381Z,101674.56
2022-09-22T16:06:13.641Z,101675.59
2022-09-22T16:08:40.093Z,101662.94
2022-09-22T16:11:06.389Z,101675.38
2022-09-22T16:13:32.714Z,101665.63
2022-09-22T16:15:59.182Z,101657.56
2022-09-22T16:18:25.481Z,101670.22
2022-09-22T16:20:51.784Z,101667.53
2022-09-22T16:23:18.059Z,101663.16
2022-09-22T16:25:44.716Z,101657.75
2022-09-22T16:28:11.026Z,101662.13
2022-09-22T16:30:37.322Z,101662.34
2022-09-22T16:33:03.588Z,101660.47
2022-09-22T16:35:29.852Z,101665.03
2022-09-22T16:37:56.367Z,101665.84
2022-09-22T16:40:22.764Z,101672.28
2022-09-22T16:42:49.200Z,101669.59
2022-09-22T16:45:15.812Z,101676.63
2022-09-22T16:47:42.090Z,101674.97
2022-09-22T16:50:08.681Z,101673.13
2022-09-22T16:52:35.066Z,101673.13
2022-09-22T16:55:01.325Z,101674.97
2022-09-22T16:57:27.866Z,101676.63
2022-09-22T16:59:54.353Z,101665.84
2022-09-22T17:02:20.959Z,101678.28
2022-09-22T17:04:47.467Z,101672.06
2022-09-22T17:07:13.975Z,101665.84
2022-09-22T17:09:40.467Z,101665.03
2022-09-22T17:12:06.847Z,101673.94
2022-09-22T17:14:33.087Z,101673.72
2022-09-22T17:16:59.359Z,101685.34
2022-09-22T17:19:25.659Z,101673.72
2022-09-22T17:21:51.944Z,101674.56
2022-09-22T17:24:18.531Z,101669.16
2022-09-22T17:26:45.261Z,101668.31
2022-09-22T17:29:11.557Z,101671.88
2022-09-22T17:31:38.102Z,101669.97
2022-09-22T17:34:04.612Z,101662.72
2022-09-22T17:36:30.997Z,101663.78
2022-09-22T17:38:57.268Z,101667.53
2022-09-22T17:41:23.591Z,101664.59
2022-09-22T17:43:50.094Z,101660.88
2022-09-22T17:46:16.410Z,101667.06
2022-09-22T17:48:42.838Z,101659.81
2022-09-22T17:51:09.087Z,101669.75
2022-09-22T17:53:35.518Z,101668.75
2022-09-22T17:56:01.839Z,101668.75
2022-09-22T17:58:28.111Z,101669.75
2022-09-22T18:00:54.712Z,101670.41
2022-09-22T18:03:21.219Z,101663.38
2022-09-22T18:05:47.524Z,101668.75
2022-09-22T18:08:13.829Z,101669.56
2022-09-22T18:10:40.097Z,101670.41
2022-09-22T18:13:06.661Z,101674.13
2022-09-22T18:15:33.185Z,101672.25
2022-09-22T18:17:59.913Z,101678.69
2022-09-22T18:20:26.235Z,101672.47
2022-09-22T18:22:52.577Z,101669.56
2022-09-22T18:25:19.034Z,101674.13
2022-09-22T18:27:45.295Z,101673.09
2022-09-22T18:30:15.393Z,101682.22
2022-09-22T18:32:42.399Z,101676.00
2022-09-22T18:35:08.693Z,101690.31
2022-09-22T18:37:35.616Z,101684.91
2022-09-22T18:40:02.076Z,101682.22
2022-09-22T18:42:28.542Z,101675.16
2022-09-22T18:44:54.973Z,101683.22
2022-09-22T18:47:21.275Z,101685.72
2022-09-22T18:49:47.617Z,101678.69
2022-09-22T18:52:14.041Z,101678.69
2022-09-22T18:54:40.300Z,101681.38
2022-09-22T18:57:06.597Z,101681.38
2022-09-22T18:59:32.889Z,101684.91
2022-09-22T19:01:59.251Z,101688.41
2022-09-22T19:04:25.637Z,101674.94
2022-09-22T19:06:51.869Z,101676.84
2022-09-22T19:09:18.174Z,101680.13
2022-09-22T19:11:44.436Z,101678.69
2022-09-22T19:14:10.737Z,101677.84
2022-09-22T19:16:37.120Z,101684.06
2022-09-22T19:19:03.408Z,101678.47
2022-09-22T19:21:29.622Z,101679.53
2022-09-22T19:23:55.946Z,101676.84
2022-09-22T19:26:22.241Z,101676.00
2022-09-22T19:28:48.521Z,101683.22
2022-09-22T19:31:14.816Z,101681.16
2022-09-22T19:33:41.305Z,101686.56
2022-09-22T19:36:07.611Z,101684.06
2022-09-22T19:38:33.935Z,101682.44
2022-09-22T19:41:00.286Z,101679.53
2022-09-22T19:43:26.592Z,101679.53
2022-09-22T19:45:52.892Z,101680.53
2022-09-22T19:48:19.691Z,101677.84
2022-09-22T19:50:45.961Z,101674.34
2022-09-22T19:53:12.465Z,101670.81
2022-09-22T19:55:38.717Z,101665.44
2022-09-22T19:58:04.996Z,101673.50
2022-09-22T20:00:31.353Z,101671.88
2022-09-22T20:02:57.788Z,101669.75
2022-09-22T20:05:24.098Z,101669.97
2022-09-22T20:07:50.429Z,101669.97
2022-09-22T20:10:16.726Z,101665.44
2022-09-22T20:12:42.981Z,101667.53
2022-09-22T20:15:09.244Z,101671.03
2022-09-22T20:17:35.653Z,101665.44
2022-09-22T20:20:02.964Z,101663.78
2022-09-22T20:22:29.453Z,101661.88
2022-09-22T20:24:55.733Z,101663.78
2022-09-22T20:27:22.154Z,101666.47
2022-09-22T20:29:48.465Z,101669.97
2022-09-22T20:32:14.802Z,101673.50
2022-09-22T20:34:41.040Z,101669.16
2022-09-22T20:37:07.493Z,101664.81
2022-09-22T20:39:34.143Z,101669.16
2022-09-22T20:42:00.480Z,101662.94
2022-09-22T20:44:26.778Z,101662.94
2022-09-22T20:46:53.164Z,101672.06
2022-09-22T20:49:19.603Z,101678.50
2022-09-22T20:51:46.510Z,101674.97
2022-09-22T20:54:12.833Z,101668.53
2022-09-22T20:56:42.599Z,101667.53
2022-09-22T20:59:09.294Z,101674.56
2022-09-22T21:01:35.649Z,101669.59
2022-09-22T21:04:02.083Z,101670.44
2022-09-22T21:06:28.412Z,101670.44
2022-09-22T21:08:54.847Z,101667.72
2022-09-22T21:11:21.166Z,101673.94
2022-09-22T21:13:47.548Z,101666.88
2022-09-22T21:16:13.917Z,101659.84
2022-09-22T21:18:40.232Z,101660.47
2022-09-22T21:21:06.514Z,101661.50
2022-09-22T21:23:32.829Z,101662.56
2022-09-22T21:25:59.784Z,101665.03
2022-09-22T21:28:26.097Z,101660.66
2022-09-22T21:30:52.486Z,101661.50
2022-09-22T21:33:19.078Z,101666.88
2022-09-22T21:35:45.561Z,101659.03
2022-09-22T21:38:11.892Z,101658.81
2022-09-22T21:40:38.353Z,101659.84
2022-09-22T21:43:04.853Z,101657.16
2022-09-22T21:45:31.140Z,101651.78
2022-09-22T21:47:57.451Z,101654.47
2022-09-22T21:50:23.888Z,101657.16
2022-09-22T21:52:50.228Z,101648.44
2022-09-22T21:55:16.551Z,101648.44
2022-09-22T21:57:42.970Z,101647.66
2022-09-22T22:00:09.256Z,101643.06
2022-09-22T22:02:35.831Z,101653.41
2022-09-22T22:05:02.141Z,101649.09
2022-09-22T22:07:29.024Z,101648.44
2022-09-22T22:09:55.286Z,101647.44
2022-09-22T22:12:21.598Z,101648.25
2022-09-22T22:14:47.878Z,101647.66
2022-09-22T22:17:14.246Z,101650.94
2022-09-22T22:19:40.863Z,101647.84
2022-09-22T22:22:09.819Z,101648.44
2022-09-22T22:24:36.870Z,101641.41
2022-09-22T22:27:03.290Z,101638.72
2022-09-22T22:29:29.701Z,101646.00
2022-09-22T22:31:56.602Z,101646.81
2022-09-22T22:34:22.933Z,101642.47
2022-09-22T22:36:49.290Z,101648.69
2022-09-22T22:39:15.782Z,101648.44
2022-09-22T22:41:42.117Z,101643.06
2022-09-22T22:44:08.351Z,101643.06
2022-09-22T22:46:34.718Z,101647.84
2022-09-22T22:49:01.292Z,101644.31
2022-09-22T22:51:27.560Z,101639.78
2022-09-22T22:53:53.835Z,101638.13
2022-09-22T22:56:20.204Z,101647.22
2022-09-22T22:58:47.431Z,101639.16
2022-09-22T23:01:13.807Z,101638.72
2022-09-22T23:03:40.305Z,101639.78
2022-09-22T23:06:06.746Z,101634.38
2022-09-22T23:08:33.161Z,101633.56
2022-09-22T23:10:59.454Z,101640.81
2022-09-22T23:13:25.682Z,101636.25
2022-09-22T23:15:52.405Z,101638.13
2022-09-22T23:18:20.887Z,101639.16
2022-09-22T23:20:47.429Z,101631.06
2022-09-22T23:23:13.730Z,101627.34
2022-09-22T23:25:40.008Z,101624.88
2022-09-22T23:28:06.447Z,101624.66
2022-09-22T23:30:32.846Z,101614.09
2022-09-22T23:32:59.178Z,101620.28
2022-09-22T23:35:25.637Z,101615.75
2022-09-22T23:37:51.932Z,101609.53
2022-09-22T23:40:18.243Z,101612.22
2022-09-22T23:42:44.782Z,101615.94
2022-09-22T23:45:11.167Z,101607.88
2022-09-22T23:47:40.964Z,101610.56
2022-09-22T23:50:07.356Z,101613.25
2022-09-22T23:52:33.688Z,101607.06
2022-09-22T23:55:00.033Z,101602.47
2022-09-22T23:57:26.368Z,101608.91
2022-09-22T23:59:52.793Z,101608.09
